sensor_id;sensor_type;location;lat;lon;timestamp;P1;durP1;ratioP1;P2;durP2;ratioP2
21000;SDS011;10658;50.920;12.238;2024-02-21T00:00:34;6.38;;;2.95;;
21000;SDS011;10658;50.920;12.238;2024-02-21T00:04:35;10.10;;;3.38;;
21000;SDS011;10658;50.920;12.238;2024-02-21T00:08:37;9.23;;;3.47;;
21000;SDS011;10658;50.920;12.238;2024-02-21T00:12:38;12.52;;;3.55;;
21000;SDS011;10658;50.920;12.238;2024-02-21T00:16:39;8.65;;;2.92;;
21000;SDS011;10658;50.920;12.238;2024-02-21T00:20:40;13.60;;;3.55;;
21000;SDS011;10658;50.920;12.238;2024-02-21T00:24:41;9.05;;;3.20;;
21000;SDS011;10658;50.920;12.238;2024-02-21T00:28:42;6.20;;;3.17;;
21000;SDS011;10658;50.920;12.238;2024-02-21T00:32:43;10.30;;;3.10;;
21000;SDS011;10658;50.920;12.238;2024-02-21T00:36:44;13.07;;;3.22;;
21000;SDS011;10658;50.920;12.238;2024-02-21T00:40:44;11.13;;;3.17;;
21000;SDS011;10658;50.920;12.238;2024-02-21T00:44:45;10.88;;;2.92;;
21000;SDS011;10658;50.920;12.238;2024-02-21T00:48:47;12.13;;;3.38;;
21000;SDS011;10658;50.920;12.238;2024-02-21T00:52:50;7.18;;;2.90;;
21000;SDS011;10658;50.920;12.238;2024-02-21T00:56:50;11.95;;;3.10;;
21000;SDS011;10658;50.920;12.238;2024-02-21T01:00:51;8.57;;;3.28;;
21000;SDS011;10658;50.920;12.238;2024-02-21T01:04:52;13.23;;;3.40;;
21000;SDS011;10658;50.920;12.238;2024-02-21T01:08:53;11.98;;;3.30;;
21000;SDS011;10658;50.920;12.238;2024-02-21T01:12:54;12.93;;;3.25;;
21000;SDS011;10658;50.920;12.238;2024-02-21T01:16:55;5.82;;;3.17;;
21000;SDS011;10658;50.920;12.238;2024-02-21T01:20:57;6.60;;;3.17;;
21000;SDS011;10658;50.920;12.238;2024-02-21T01:24:57;12.23;;;3.47;;
21000;SDS011;10658;50.920;12.238;2024-02-21T01:28:58;10.48;;;3.70;;
21000;SDS011;10658;50.920;12.238;2024-02-21T01:33:05;7.95;;;3.17;;
21000;SDS011;10658;50.920;12.238;2024-02-21T01:37:06;6.63;;;2.90;;
21000;SDS011;10658;50.920;12.238;2024-02-21T01:41:07;9.93;;;3.03;;
21000;SDS011;10658;50.920;12.238;2024-02-21T01:45:08;5.05;;;2.92;;
21000;SDS011;10658;50.920;12.238;2024-02-21T01:49:10;12.50;;;3.78;;
21000;SDS011;10658;50.920;12.238;2024-02-21T01:53:11;7.88;;;3.47;;
21000;SDS011;10658;50.920;12.238;2024-02-21T01:57:18;6.53;;;3.35;;
21000;SDS011;10658;50.920;12.238;2024-02-21T02:01:19;6.53;;;3.63;;
21000;SDS011;10658;50.920;12.238;2024-02-21T02:05:21;13.48;;;3.58;;
21000;SDS011;10658;50.920;12.238;2024-02-21T02:09:22;5.78;;;3.33;;
21000;SDS011;10658;50.920;12.238;2024-02-21T02:13:23;6.68;;;3.22;;
21000;SDS011;10658;50.920;12.238;2024-02-21T02:17:25;11.73;;;4.25;;
21000;SDS011;10658;50.920;12.238;2024-02-21T02:21:29;6.05;;;4.05;;
21000;SDS011;10658;50.920;12.238;2024-02-21T02:25:32;13.73;;;3.95;;
21000;SDS011;10658;50.920;12.238;2024-02-21T02:29:33;14.43;;;4.30;;
21000;SDS011;10658;50.920;12.238;2024-02-21T02:33:34;13.00;;;4.60;;
21000;SDS011;10658;50.920;12.238;2024-02-21T02:37:35;14.98;;;4.43;;
21000;SDS011;10658;50.920;12.238;2024-02-21T02:41:36;10.65;;;4.18;;
21000;SDS011;10658;50.920;12.238;2024-02-21T02:45:36;11.05;;;3.63;;
21000;SDS011;10658;50.920;12.238;2024-02-21T02:49:37;8.63;;;3.88;;
21000;SDS011;10658;50.920;12.238;2024-02-21T02:53:38;7.30;;;4.30;;
21000;SDS011;10658;50.920;12.238;2024-02-21T02:57:39;7.10;;;4.10;;
21000;SDS011;10658;50.920;12.238;2024-02-21T03:01:42;10.85;;;5.15;;
21000;SDS011;10658;50.920;12.238;2024-02-21T03:05:42;12.43;;;3.88;;
21000;SDS011;10658;50.920;12.238;2024-02-21T03:09:43;9.15;;;4.50;;
21000;SDS011;10658;50.920;12.238;2024-02-21T03:13:44;10.00;;;5.07;;
21000;SDS011;10658;50.920;12.238;2024-02-21T03:17:45;13.02;;;4.10;;
21000;SDS011;10658;50.920;12.238;2024-02-21T03:21:46;8.70;;;4.25;;
21000;SDS011;10658;50.920;12.238;2024-02-21T03:25:46;10.23;;;4.35;;
21000;SDS011;10658;50.920;12.238;2024-02-21T03:29:47;10.93;;;4.07;;
21000;SDS011;10658;50.920;12.238;2024-02-21T03:33:49;9.18;;;4.80;;
21000;SDS011;10658;50.920;12.238;2024-02-21T03:37:50;12.43;;;4.55;;
21000;SDS011;10658;50.920;12.238;2024-02-21T03:41:51;10.85;;;4.70;;
21000;SDS011;10658;50.920;12.238;2024-02-21T03:45:52;9.70;;;4.15;;
21000;SDS011;10658;50.920;12.238;2024-02-21T03:49:53;11.50;;;4.03;;
21000;SDS011;10658;50.920;12.238;2024-02-21T03:53:53;12.60;;;5.25;;
21000;SDS011;10658;50.920;12.238;2024-02-21T03:57:54;8.32;;;4.47;;
21000;SDS011;10658;50.920;12.238;2024-02-21T04:01:55;9.10;;;4.50;;
21000;SDS011;10658;50.920;12.238;2024-02-21T04:05:57;11.27;;;4.65;;
21000;SDS011;10658;50.920;12.238;2024-02-21T04:09:58;10.48;;;4.75;;
21000;SDS011;10658;50.920;12.238;2024-02-21T04:13:59;8.35;;;4.82;;
21000;SDS011;10658;50.920;12.238;2024-02-21T04:18:00;16.75;;;5.00;;
21000;SDS011;10658;50.920;12.238;2024-02-21T04:22:01;10.20;;;4.80;;
21000;SDS011;10658;50.920;12.238;2024-02-21T04:26:01;9.23;;;4.07;;
21000;SDS011;10658;50.920;12.238;2024-02-21T04:30:03;13.48;;;5.00;;
21000;SDS011;10658;50.920;12.238;2024-02-21T04:34:05;12.95;;;4.70;;
21000;SDS011;10658;50.920;12.238;2024-02-21T04:38:07;11.00;;;4.43;;
21000;SDS011;10658;50.920;12.238;2024-02-21T04:42:08;9.60;;;4.53;;
21000;SDS011;10658;50.920;12.238;2024-02-21T04:46:09;12.50;;;5.43;;
21000;SDS011;10658;50.920;12.238;2024-02-21T04:50:10;8.50;;;4.60;;
21000;SDS011;10658;50.920;12.238;2024-02-21T04:54:11;8.43;;;4.78;;
21000;SDS011;10658;50.920;12.238;2024-02-21T04:58:12;18.33;;;6.55;;
21000;SDS011;10658;50.920;12.238;2024-02-21T05:02:13;10.77;;;4.80;;
21000;SDS011;10658;50.920;12.238;2024-02-21T05:06:14;10.98;;;4.60;;
21000;SDS011;10658;50.920;12.238;2024-02-21T05:10:18;5.63;;;4.35;;
21000;SDS011;10658;50.920;12.238;2024-02-21T05:14:20;10.40;;;5.18;;
21000;SDS011;10658;50.920;12.238;2024-02-21T05:18:21;11.15;;;4.78;;
21000;SDS011;10658;50.920;12.238;2024-02-21T05:22:22;11.75;;;5.15;;
21000;SDS011;10658;50.920;12.238;2024-02-21T05:26:24;12.88;;;4.97;;
21000;SDS011;10658;50.920;12.238;2024-02-21T05:30:25;11.60;;;4.82;;
21000;SDS011;10658;50.920;12.238;2024-02-21T05:34:26;9.52;;;4.55;;
21000;SDS011;10658;50.920;12.238;2024-02-21T05:38:27;7.20;;;4.22;;
21000;SDS011;10658;50.920;12.238;2024-02-21T05:42:28;12.93;;;5.20;;
21000;SDS011;10658;50.920;12.238;2024-02-21T05:46:29;9.27;;;4.65;;
21000;SDS011;10658;50.920;12.238;2024-02-21T05:50:30;8.73;;;4.97;;
21000;SDS011;10658;50.920;12.238;2024-02-21T05:54:30;11.05;;;5.05;;
21000;SDS011;10658;50.920;12.238;2024-02-21T05:58:31;9.45;;;4.60;;
21000;SDS011;10658;50.920;12.238;2024-02-21T06:02:32;10.77;;;5.15;;
21000;SDS011;10658;50.920;12.238;2024-02-21T06:06:33;13.40;;;5.47;;
21000;SDS011;10658;50.920;12.238;2024-02-21T06:10:34;14.40;;;6.13;;
21000;SDS011;10658;50.920;12.238;2024-02-21T06:14:36;13.15;;;5.25;;
21000;SDS011;10658;50.920;12.238;2024-02-21T06:18:37;10.45;;;5.63;;
21000;SDS011;10658;50.920;12.238;2024-02-21T06:22:38;12.95;;;6.07;;
21000;SDS011;10658;50.920;12.238;2024-02-21T06:26:40;9.48;;;5.10;;
21000;SDS011;10658;50.920;12.238;2024-02-21T06:30:41;9.55;;;4.65;;
21000;SDS011;10658;50.920;12.238;2024-02-21T06:34:42;13.18;;;5.40;;
21000;SDS011;10658;50.920;12.238;2024-02-21T06:38:43;12.85;;;4.70;;
21000;SDS011;10658;50.920;12.238;2024-02-21T06:42:45;9.05;;;4.90;;
21000;SDS011;10658;50.920;12.238;2024-02-21T06:46:46;14.55;;;5.20;;
21000;SDS011;10658;50.920;12.238;2024-02-21T06:50:47;10.60;;;4.95;;
21000;SDS011;10658;50.920;12.238;2024-02-21T06:54:48;12.77;;;5.22;;
21000;SDS011;10658;50.920;12.238;2024-02-21T06:58:49;12.80;;;5.80;;
21000;SDS011;10658;50.920;12.238;2024-02-21T07:02:49;11.02;;;5.20;;
21000;SDS011;10658;50.920;12.238;2024-02-21T07:06:50;9.45;;;5.28;;
21000;SDS011;10658;50.920;12.238;2024-02-21T07:10:51;12.40;;;5.13;;
21000;SDS011;10658;50.920;12.238;2024-02-21T07:14:53;13.57;;;5.68;;
21000;SDS011;10658;50.920;12.238;2024-02-21T07:18:55;11.30;;;4.78;;
21000;SDS011;10658;50.920;12.238;2024-02-21T07:22:56;11.23;;;4.90;;
21000;SDS011;10658;50.920;12.238;2024-02-21T07:26:57;8.48;;;5.38;;
21000;SDS011;10658;50.920;12.238;2024-02-21T07:30:58;12.45;;;4.68;;
21000;SDS011;10658;50.920;12.238;2024-02-21T07:35:00;12.82;;;4.70;;
21000;SDS011;10658;50.920;12.238;2024-02-21T07:39:00;9.68;;;4.78;;
21000;SDS011;10658;50.920;12.238;2024-02-21T07:43:01;6.15;;;4.53;;
21000;SDS011;10658;50.920;12.238;2024-02-21T07:47:02;9.40;;;4.13;;
21000;SDS011;10658;50.920;12.238;2024-02-21T07:51:06;9.85;;;4.63;;
21000;SDS011;10658;50.920;12.238;2024-02-21T07:55:07;10.27;;;4.75;;
21000;SDS011;10658;50.920;12.238;2024-02-21T07:59:10;15.20;;;4.50;;
21000;SDS011;10658;50.920;12.238;2024-02-21T08:03:13;8.85;;;4.72;;
21000;SDS011;10658;50.920;12.238;2024-02-21T08:07:15;10.73;;;5.93;;
21000;SDS011;10658;50.920;12.238;2024-02-21T08:11:16;9.32;;;3.60;;
21000;SDS011;10658;50.920;12.238;2024-02-21T08:15:17;9.00;;;3.63;;
21000;SDS011;10658;50.920;12.238;2024-02-21T08:19:18;9.65;;;4.13;;
21000;SDS011;10658;50.920;12.238;2024-02-21T08:23:19;5.30;;;3.55;;
21000;SDS011;10658;50.920;12.238;2024-02-21T08:27:19;7.60;;;3.13;;
21000;SDS011;10658;50.920;12.238;2024-02-21T08:31:20;6.50;;;3.33;;
21000;SDS011;10658;50.920;12.238;2024-02-21T08:35:23;7.07;;;2.95;;
21000;SDS011;10658;50.920;12.238;2024-02-21T08:39:24;7.07;;;3.25;;
21000;SDS011;10658;50.920;12.238;2024-02-21T08:43:25;4.93;;;3.13;;
21000;SDS011;10658;50.920;12.238;2024-02-21T08:47:25;9.82;;;3.50;;
21000;SDS011;10658;50.920;12.238;2024-02-21T08:51:27;10.43;;;3.95;;
21000;SDS011;10658;50.920;12.238;2024-02-21T08:55:28;6.03;;;3.60;;
21000;SDS011;10658;50.920;12.238;2024-02-21T08:59:29;8.35;;;3.13;;
21000;SDS011;10658;50.920;12.238;2024-02-21T09:03:33;6.85;;;3.53;;
21000;SDS011;10658;50.920;12.238;2024-02-21T09:07:34;6.88;;;3.10;;
21000;SDS011;10658;50.920;12.238;2024-02-21T09:11:35;6.78;;;3.65;;
21000;SDS011;10658;50.920;12.238;2024-02-21T09:15:36;8.52;;;3.63;;
21000;SDS011;10658;50.920;12.238;2024-02-21T09:19:36;7.30;;;3.50;;
21000;SDS011;10658;50.920;12.238;2024-02-21T09:23:37;5.32;;;2.95;;
21000;SDS011;10658;50.920;12.238;2024-02-21T09:27:38;4.10;;;2.67;;
21000;SDS011;10658;50.920;12.238;2024-02-21T09:31:39;6.60;;;3.25;;
21000;SDS011;10658;50.920;12.238;2024-02-21T09:35:40;7.22;;;3.28;;
21000;SDS011;10658;50.920;12.238;2024-02-21T09:39:41;5.10;;;3.53;;
21000;SDS011;10658;50.920;12.238;2024-02-21T09:43:41;6.68;;;2.92;;
21000;SDS011;10658;50.920;12.238;2024-02-21T09:47:57;8.20;;;3.35;;
21000;SDS011;10658;50.920;12.238;2024-02-21T09:52:19;9.68;;;4.63;;
21000;SDS011;10658;50.920;12.238;2024-02-21T09:56:22;10.73;;;4.13;;
21000;SDS011;10658;50.920;12.238;2024-02-21T10:00:22;5.40;;;3.67;;
21000;SDS011;10658;50.920;12.238;2024-02-21T10:04:23;9.75;;;4.00;;
21000;SDS011;10658;50.920;12.238;2024-02-21T10:08:24;5.05;;;3.85;;
21000;SDS011;10658;50.920;12.238;2024-02-21T10:12:25;7.40;;;3.35;;
21000;SDS011;10658;50.920;12.238;2024-02-21T10:16:26;6.47;;;3.83;;
21000;SDS011;10658;50.920;12.238;2024-02-21T10:20:27;3.78;;;2.88;;
21000;SDS011;10658;50.920;12.238;2024-02-21T10:24:28;8.10;;;3.83;;
21000;SDS011;10658;50.920;12.238;2024-02-21T10:28:29;4.00;;;2.60;;
21000;SDS011;10658;50.920;12.238;2024-02-21T10:32:30;6.32;;;3.17;;
21000;SDS011;10658;50.920;12.238;2024-02-21T10:36:31;5.80;;;2.30;;
21000;SDS011;10658;50.920;12.238;2024-02-21T10:40:32;4.05;;;2.60;;
21000;SDS011;10658;50.920;12.238;2024-02-21T10:44:33;3.70;;;2.55;;
21000;SDS011;10658;50.920;12.238;2024-02-21T10:48:43;5.38;;;2.95;;
21000;SDS011;10658;50.920;12.238;2024-02-21T10:52:49;4.35;;;2.42;;
21000;SDS011;10658;50.920;12.238;2024-02-21T10:56:56;4.22;;;2.20;;
21000;SDS011;10658;50.920;12.238;2024-02-21T11:00:58;5.60;;;2.47;;
21000;SDS011;10658;50.920;12.238;2024-02-21T11:04:59;4.53;;;2.75;;
21000;SDS011;10658;50.920;12.238;2024-02-21T11:09:07;3.25;;;1.92;;
21000;SDS011;10658;50.920;12.238;2024-02-21T11:13:09;3.50;;;2.33;;
21000;SDS011;10658;50.920;12.238;2024-02-21T11:17:18;8.27;;;2.83;;
21000;SDS011;10658;50.920;12.238;2024-02-21T11:21:21;4.20;;;1.90;;
21000;SDS011;10658;50.920;12.238;2024-02-21T11:25:32;4.57;;;2.03;;
21000;SDS011;10658;50.920;12.238;2024-02-21T11:29:33;4.45;;;2.70;;
21000;SDS011;10658;50.920;12.238;2024-02-21T11:33:43;5.47;;;2.67;;
21000;SDS011;10658;50.920;12.238;2024-02-21T11:37:47;3.53;;;2.30;;
21000;SDS011;10658;50.920;12.238;2024-02-21T11:46:09;5.78;;;2.70;;
21000;SDS011;10658;50.920;12.238;2024-02-21T11:50:10;5.85;;;2.50;;
21000;SDS011;10658;50.920;12.238;2024-02-21T11:54:12;8.52;;;2.95;;
21000;SDS011;10658;50.920;12.238;2024-02-21T11:58:16;5.82;;;2.75;;
21000;SDS011;10658;50.920;12.238;2024-02-21T12:02:17;4.78;;;3.90;;
21000;SDS011;10658;50.920;12.238;2024-02-21T12:06:18;5.55;;;3.00;;
21000;SDS011;10658;50.920;12.238;2024-02-21T12:10:21;6.10;;;3.25;;
21000;SDS011;10658;50.920;12.238;2024-02-21T12:14:22;6.75;;;3.08;;
21000;SDS011;10658;50.920;12.238;2024-02-21T12:18:25;6.97;;;3.03;;
21000;SDS011;10658;50.920;12.238;2024-02-21T12:22:26;7.63;;;3.10;;
21000;SDS011;10658;50.920;12.238;2024-02-21T12:26:28;5.20;;;3.25;;
21000;SDS011;10658;50.920;12.238;2024-02-21T12:30:28;6.10;;;2.83;;
21000;SDS011;10658;50.920;12.238;2024-02-21T12:34:30;7.10;;;3.05;;
21000;SDS011;10658;50.920;12.238;2024-02-21T12:38:35;6.70;;;2.83;;
21000;SDS011;10658;50.920;12.238;2024-02-21T12:42:36;5.75;;;3.50;;
21000;SDS011;10658;50.920;12.238;2024-02-21T12:46:37;7.93;;;4.00;;
21000;SDS011;10658;50.920;12.238;2024-02-21T12:50:41;7.28;;;3.58;;
21000;SDS011;10658;50.920;12.238;2024-02-21T12:54:51;6.43;;;2.78;;
21000;SDS011;10658;50.920;12.238;2024-02-21T12:58:52;7.68;;;3.65;;
21000;SDS011;10658;50.920;12.238;2024-02-21T13:02:54;6.30;;;2.88;;
21000;SDS011;10658;50.920;12.238;2024-02-21T13:06:55;5.28;;;2.78;;
21000;SDS011;10658;50.920;12.238;2024-02-21T13:10:55;5.45;;;3.45;;
21000;SDS011;10658;50.920;12.238;2024-02-21T13:14:57;6.22;;;3.22;;
21000;SDS011;10658;50.920;12.238;2024-02-21T13:18:58;5.00;;;2.78;;
21000;SDS011;10658;50.920;12.238;2024-02-21T13:22:59;7.63;;;3.30;;
21000;SDS011;10658;50.920;12.238;2024-02-21T13:26:59;5.22;;;3.35;;
21000;SDS011;10658;50.920;12.238;2024-02-21T13:31:00;4.22;;;3.50;;
21000;SDS011;10658;50.920;12.238;2024-02-21T13:35:03;5.43;;;2.60;;
21000;SDS011;10658;50.920;12.238;2024-02-21T13:39:05;4.60;;;2.50;;
21000;SDS011;10658;50.920;12.238;2024-02-21T13:43:05;5.43;;;3.05;;
21000;SDS011;10658;50.920;12.238;2024-02-21T13:47:06;6.60;;;2.60;;
21000;SDS011;10658;50.920;12.238;2024-02-21T13:51:08;4.88;;;3.13;;
21000;SDS011;10658;50.920;12.238;2024-02-21T13:55:09;5.55;;;2.25;;
21000;SDS011;10658;50.920;12.238;2024-02-21T13:59:10;4.40;;;2.47;;
21000;SDS011;10658;50.920;12.238;2024-02-21T14:03:12;5.70;;;2.25;;
21000;SDS011;10658;50.920;12.238;2024-02-21T14:07:13;4.35;;;2.03;;
21000;SDS011;10658;50.920;12.238;2024-02-21T14:11:14;4.97;;;2.30;;
21000;SDS011;10658;50.920;12.238;2024-02-21T14:15:15;3.50;;;2.20;;
21000;SDS011;10658;50.920;12.238;2024-02-21T14:19:19;5.65;;;2.53;;
21000;SDS011;10658;50.920;12.238;2024-02-21T14:23:19;5.38;;;3.03;;
21000;SDS011;10658;50.920;12.238;2024-02-21T14:27:21;5.32;;;3.20;;
21000;SDS011;10658;50.920;12.238;2024-02-21T14:31:22;4.40;;;2.42;;
21000;SDS011;10658;50.920;12.238;2024-02-21T14:35:24;8.20;;;3.35;;
21000;SDS011;10658;50.920;12.238;2024-02-21T14:39:25;4.35;;;2.33;;
21000;SDS011;10658;50.920;12.238;2024-02-21T14:43:25;7.63;;;3.05;;
21000;SDS011;10658;50.920;12.238;2024-02-21T14:47:26;9.45;;;3.40;;
21000;SDS011;10658;50.920;12.238;2024-02-21T14:51:27;6.40;;;2.53;;
21000;SDS011;10658;50.920;12.238;2024-02-21T14:55:28;3.97;;;2.53;;
21000;SDS011;10658;50.920;12.238;2024-02-21T14:59:29;5.65;;;2.58;;
21000;SDS011;10658;50.920;12.238;2024-02-21T15:03:30;6.32;;;3.20;;
21000;SDS011;10658;50.920;12.238;2024-02-21T15:07:31;7.97;;;2.42;;
21000;SDS011;10658;50.920;12.238;2024-02-21T15:11:33;3.42;;;2.10;;
21000;SDS011;10658;50.920;12.238;2024-02-21T15:15:34;4.60;;;2.55;;
21000;SDS011;10658;50.920;12.238;2024-02-21T15:19:35;7.47;;;2.70;;
21000;SDS011;10658;50.920;12.238;2024-02-21T15:23:37;8.82;;;2.67;;
21000;SDS011;10658;50.920;12.238;2024-02-21T15:27:38;4.72;;;2.20;;
21000;SDS011;10658;50.920;12.238;2024-02-21T15:31:39;4.68;;;2.90;;
21000;SDS011;10658;50.920;12.238;2024-02-21T15:35:44;5.63;;;2.72;;
21000;SDS011;10658;50.920;12.238;2024-02-21T15:39:44;8.30;;;3.10;;
21000;SDS011;10658;50.920;12.238;2024-02-21T15:43:45;5.80;;;2.85;;
21000;SDS011;10658;50.920;12.238;2024-02-21T15:47:46;5.28;;;3.00;;
21000;SDS011;10658;50.920;12.238;2024-02-21T15:51:47;7.28;;;2.85;;
21000;SDS011;10658;50.920;12.238;2024-02-21T15:55:48;6.10;;;3.03;;
21000;SDS011;10658;50.920;12.238;2024-02-21T15:59:49;5.25;;;2.55;;
21000;SDS011;10658;50.920;12.238;2024-02-21T16:03:50;8.98;;;4.55;;
21000;SDS011;10658;50.920;12.238;2024-02-21T16:07:51;12.75;;;5.18;;
21000;SDS011;10658;50.920;12.238;2024-02-21T16:11:52;9.27;;;4.20;;
21000;SDS011;10658;50.920;12.238;2024-02-21T16:15:54;6.18;;;2.05;;
21000;SDS011;10658;50.920;12.238;2024-02-21T16:19:55;4.05;;;2.50;;
21000;SDS011;10658;50.920;12.238;2024-02-21T16:23:56;7.35;;;2.13;;
21000;SDS011;10658;50.920;12.238;2024-02-21T16:27:57;5.38;;;2.05;;
21000;SDS011;10658;50.920;12.238;2024-02-21T16:31:58;4.25;;;2.28;;
21000;SDS011;10658;50.920;12.238;2024-02-21T16:35:58;6.63;;;2.90;;
21000;SDS011;10658;50.920;12.238;2024-02-21T16:40:00;7.03;;;2.55;;
21000;SDS011;10658;50.920;12.238;2024-02-21T16:44:01;4.20;;;2.10;;
21000;SDS011;10658;50.920;12.238;2024-02-21T16:48:02;5.43;;;2.40;;
21000;SDS011;10658;50.920;12.238;2024-02-21T16:52:05;8.85;;;2.50;;
21000;SDS011;10658;50.920;12.238;2024-02-21T16:56:06;3.22;;;1.88;;
21000;SDS011;10658;50.920;12.238;2024-02-21T17:00:07;5.47;;;2.15;;
21000;SDS011;10658;50.920;12.238;2024-02-21T17:04:11;5.20;;;2.70;;
21000;SDS011;10658;50.920;12.238;2024-02-21T17:08:15;6.65;;;3.53;;
21000;SDS011;10658;50.920;12.238;2024-02-21T17:12:16;13.85;;;6.20;;
21000;SDS011;10658;50.920;12.238;2024-02-21T17:16:17;6.40;;;3.53;;
21000;SDS011;10658;50.920;12.238;2024-02-21T17:20:17;5.50;;;3.00;;
21000;SDS011;10658;50.920;12.238;2024-02-21T17:24:23;5.50;;;2.92;;
21000;SDS011;10658;50.920;12.238;2024-02-21T17:28:23;4.63;;;3.38;;
21000;SDS011;10658;50.920;12.238;2024-02-21T17:32:24;7.25;;;3.30;;
21000;SDS011;10658;50.920;12.238;2024-02-21T17:36:26;5.00;;;3.00;;
21000;SDS011;10658;50.920;12.238;2024-02-21T17:40:27;6.07;;;5.03;;
21000;SDS011;10658;50.920;12.238;2024-02-21T17:44:27;6.68;;;4.20;;
21000;SDS011;10658;50.920;12.238;2024-02-21T17:48:29;12.93;;;5.75;;
21000;SDS011;10658;50.920;12.238;2024-02-21T17:52:30;19.20;;;8.00;;
21000;SDS011;10658;50.920;12.238;2024-02-21T17:56:36;6.20;;;3.00;;
21000;SDS011;10658;50.920;12.238;2024-02-21T18:00:37;9.02;;;3.17;;
21000;SDS011;10658;50.920;12.238;2024-02-21T18:04:44;4.47;;;3.97;;
21000;SDS011;10658;50.920;12.238;2024-02-21T18:08:44;11.52;;;4.53;;
21000;SDS011;10658;50.920;12.238;2024-02-21T18:12:45;4.78;;;2.90;;
21000;SDS011;10658;50.920;12.238;2024-02-21T18:16:48;4.57;;;2.47;;
21000;SDS011;10658;50.920;12.238;2024-02-21T18:20:49;2.97;;;1.90;;
21000;SDS011;10658;50.920;12.238;2024-02-21T18:24:50;5.32;;;2.28;;
21000;SDS011;10658;50.920;12.238;2024-02-21T18:28:51;2.90;;;2.17;;
21000;SDS011;10658;50.920;12.238;2024-02-21T18:32:56;4.85;;;2.15;;
21000;SDS011;10658;50.920;12.238;2024-02-21T18:36:59;6.85;;;2.75;;
21000;SDS011;10658;50.920;12.238;2024-02-21T18:41:01;4.05;;;2.67;;
21000;SDS011;10658;50.920;12.238;2024-02-21T18:45:02;12.07;;;3.22;;
21000;SDS011;10658;50.920;12.238;2024-02-21T18:49:05;5.40;;;2.58;;
21000;SDS011;10658;50.920;12.238;2024-02-21T18:53:06;5.90;;;2.85;;
21000;SDS011;10658;50.920;12.238;2024-02-21T18:57:07;5.20;;;1.80;;
21000;SDS011;10658;50.920;12.238;2024-02-21T19:01:08;6.25;;;1.90;;
21000;SDS011;10658;50.920;12.238;2024-02-21T19:05:09;4.15;;;2.15;;
21000;SDS011;10658;50.920;12.238;2024-02-21T19:09:10;4.45;;;2.20;;
21000;SDS011;10658;50.920;12.238;2024-02-21T19:13:11;5.20;;;2.35;;
21000;SDS011;10658;50.920;12.238;2024-02-21T19:17:13;2.60;;;1.67;;
21000;SDS011;10658;50.920;12.238;2024-02-21T19:21:14;4.75;;;1.90;;
21000;SDS011;10658;50.920;12.238;2024-02-21T19:25:16;4.38;;;1.88;;
21000;SDS011;10658;50.920;12.238;2024-02-21T19:29:20;5.70;;;2.25;;
21000;SDS011;10658;50.920;12.238;2024-02-21T19:33:20;3.80;;;2.20;;
21000;SDS011;10658;50.920;12.238;2024-02-21T19:37:21;3.33;;;1.92;;
21000;SDS011;10658;50.920;12.238;2024-02-21T19:41:26;4.38;;;1.75;;
21000;SDS011;10658;50.920;12.238;2024-02-21T19:45:27;2.55;;;1.73;;
21000;SDS011;10658;50.920;12.238;2024-02-21T19:49:28;10.43;;;4.32;;
21000;SDS011;10658;50.920;12.238;2024-02-21T19:53:29;5.38;;;2.30;;
21000;SDS011;10658;50.920;12.238;2024-02-21T19:57:32;5.28;;;2.65;;
21000;SDS011;10658;50.920;12.238;2024-02-21T20:01:33;3.45;;;1.88;;
21000;SDS011;10658;50.920;12.238;2024-02-21T20:05:34;7.88;;;4.05;;
21000;SDS011;10658;50.920;12.238;2024-02-21T20:09:35;4.65;;;2.67;;
21000;SDS011;10658;50.920;12.238;2024-02-21T20:13:37;4.50;;;2.05;;
21000;SDS011;10658;50.920;12.238;2024-02-21T20:17:37;4.80;;;2.28;;
21000;SDS011;10658;50.920;12.238;2024-02-21T20:21:42;4.25;;;1.75;;
21000;SDS011;10658;50.920;12.238;2024-02-21T20:25:44;4.15;;;1.88;;
21000;SDS011;10658;50.920;12.238;2024-02-21T20:29:45;5.80;;;2.10;;
21000;SDS011;10658;50.920;12.238;2024-02-21T20:33:46;6.05;;;2.17;;
21000;SDS011;10658;50.920;12.238;2024-02-21T20:37:48;7.80;;;3.95;;
21000;SDS011;10658;50.920;12.238;2024-02-21T20:41:49;7.07;;;2.45;;
21000;SDS011;10658;50.920;12.238;2024-02-21T20:45:53;8.02;;;2.60;;
21000;SDS011;10658;50.920;12.238;2024-02-21T20:49:55;6.22;;;2.92;;
21000;SDS011;10658;50.920;12.238;2024-02-21T20:53:58;5.95;;;2.78;;
21000;SDS011;10658;50.920;12.238;2024-02-21T20:57:59;6.32;;;3.72;;
21000;SDS011;10658;50.920;12.238;2024-02-21T21:02:00;8.73;;;2.70;;
21000;SDS011;10658;50.920;12.238;2024-02-21T21:06:00;4.30;;;2.53;;
21000;SDS011;10658;50.920;12.238;2024-02-21T21:10:01;4.22;;;1.80;;
21000;SDS011;10658;50.920;12.238;2024-02-21T21:14:04;5.47;;;2.08;;
21000;SDS011;10658;50.920;12.238;2024-02-21T21:18:06;4.22;;;1.88;;
21000;SDS011;10658;50.920;12.238;2024-02-21T21:22:07;3.53;;;2.15;;
21000;SDS011;10658;50.920;12.238;2024-02-21T21:26:08;4.28;;;2.72;;
21000;SDS011;10658;50.920;12.238;2024-02-21T21:30:09;3.60;;;2.00;;
21000;SDS011;10658;50.920;12.238;2024-02-21T21:34:10;4.88;;;2.53;;
21000;SDS011;10658;50.920;12.238;2024-02-21T21:38:12;6.38;;;2.58;;
21000;SDS011;10658;50.920;12.238;2024-02-21T21:42:13;3.78;;;2.67;;
21000;SDS011;10658;50.920;12.238;2024-02-21T21:46:14;6.68;;;3.65;;
21000;SDS011;10658;50.920;12.238;2024-02-21T21:50:15;5.40;;;2.45;;
21000;SDS011;10658;50.920;12.238;2024-02-21T21:54:16;5.15;;;2.50;;
21000;SDS011;10658;50.920;12.238;2024-02-21T21:58:17;4.88;;;2.70;;
21000;SDS011;10658;50.920;12.238;2024-02-21T22:02:18;5.35;;;2.20;;
21000;SDS011;10658;50.920;12.238;2024-02-21T22:06:20;5.22;;;2.35;;
21000;SDS011;10658;50.920;12.238;2024-02-21T22:10:21;3.38;;;1.90;;
21000;SDS011;10658;50.920;12.238;2024-02-21T22:14:22;4.97;;;1.70;;
21000;SDS011;10658;50.920;12.238;2024-02-21T22:18:23;6.07;;;2.42;;
21000;SDS011;10658;50.920;12.238;2024-02-21T22:22:24;3.10;;;1.80;;
21000;SDS011;10658;50.920;12.238;2024-02-21T22:26:25;3.45;;;1.85;;
21000;SDS011;10658;50.920;12.238;2024-02-21T22:30:26;2.80;;;1.73;;
21000;SDS011;10658;50.920;12.238;2024-02-21T22:34:27;5.57;;;2.65;;
21000;SDS011;10658;50.920;12.238;2024-02-21T22:38:41;3.72;;;1.70;;
21000;SDS011;10658;50.920;12.238;2024-02-21T22:42:42;4.28;;;2.13;;
21000;SDS011;10658;50.920;12.238;2024-02-21T22:46:43;3.80;;;1.40;;
21000;SDS011;10658;50.920;12.238;2024-02-21T22:50:43;2.38;;;1.30;;
21000;SDS011;10658;50.920;12.238;2024-02-21T22:54:44;3.00;;;1.02;;
21000;SDS011;10658;50.920;12.238;2024-02-21T22:58:45;2.78;;;1.33;;
21000;SDS011;10658;50.920;12.238;2024-02-21T23:02:46;1.58;;;1.20;;
21000;SDS011;10658;50.920;12.238;2024-02-21T23:06:50;2.15;;;1.00;;
21000;SDS011;10658;50.920;12.238;2024-02-21T23:10:50;0.93;;;0.85;;
21000;SDS011;10658;50.920;12.238;2024-02-21T23:14:52;1.80;;;1.35;;
21000;SDS011;10658;50.920;12.238;2024-02-21T23:18:53;1.17;;;0.98;;
21000;SDS011;10658;50.920;12.238;2024-02-21T23:22:53;3.08;;;2.00;;
21000;SDS011;10658;50.920;12.238;2024-02-21T23:26:54;2.47;;;1.15;;
21000;SDS011;10658;50.920;12.238;2024-02-21T23:30:55;1.02;;;0.93;;
21000;SDS011;10658;50.920;12.238;2024-02-21T23:34:56;3.92;;;1.38;;
21000;SDS011;10658;50.920;12.238;2024-02-21T23:38:58;3.25;;;1.45;;
21000;SDS011;10658;50.920;12.238;2024-02-21T23:42:59;1.50;;;1.10;;
21000;SDS011;10658;50.920;12.238;2024-02-21T23:47:01;1.73;;;1.10;;
21000;SDS011;10658;50.920;12.238;2024-02-21T23:51:02;2.03;;;1.08;;